sensor_id;sensor_type;location;lat;lon;timestamp;pressure;altitude;pressure_sealevel;temperature;humidity
66164;BME280;52962;51.088;3.096;2022-08-01T00:00:58;101501.41;;;19.65;100.00
66164;BME280;52962;51.088;3.096;2022-08-01T00:03:25;101492.47;;;19.69;100.00
66164;BME280;52962;51.088;3.096;2022-08-01T00:05:53;101499.59;;;19.70;100.00
66164;BME280;52962;51.088;3.096;2022-08-01T00:08:21;101500.47;;;19.72;100.00
66164;BME280;52962;51.088;3.096;2022-08-01T00:10:49;101489.78;;;19.72;100.00
66164;BME280;52962;51.088;3.096;2022-08-01T00:13:16;101498.69;;;19.74;100.00
66164;BME280;52962;51.088;3.096;2022-08-01T00:15:46;101502.19;;;19.76;100.00
66164;BME280;52962;51.088;3.096;2022-08-01T00:18:20;101513.75;;;19.77;100.00
66164;BME280;52962;51.088;3.096;2022-08-01T00:20:48;101504.03;;;19.71;100.00
66164;BME280;52962;51.088;3.096;2022-08-01T00:23:16;101509.41;;;19.70;100.00
66164;BME280;52962;51.088;3.096;2022-08-01T00:25:44;101510.28;;;19.69;100.00
66164;BME280;52962;51.088;3.096;2022-08-01T00:28:12;101504.09;;;19.62;100.00
66164;BME280;52962;51.088;3.096;2022-08-01T00:30:39;101506.75;;;19.64;100.00
66164;BME280;52962;51.088;3.096;2022-08-01T00:33:09;101509.41;;;19.68;100.00
66164;BME280;52962;51.088;3.096;2022-08-01T00:35:37;101511.19;;;19.68;100.00
66164;BME280;52962;51.088;3.096;2022-08-01T00:38:05;101503.16;;;19.69;100.00
66164;BME280;52962;51.088;3.096;2022-08-01T00:40:33;101495.16;;;19.69;100.00
66164;BME280;52962;51.088;3.096;2022-08-01T00:43:01;101498.69;;;19.71;100.00
66164;BME280;52962;51.088;3.096;2022-08-01T00:45:28;101503.16;;;19.69;100.00
66164;BME280;52962;51.088;3.096;2022-08-01T00:47:56;101498.72;;;19.67;100.00
66164;BME280;52962;51.088;3.096;2022-08-01T00:50:25;101500.50;;;19.66;100.00
66164;BME280;52962;51.088;3.096;2022-08-01T00:52:54;101501.41;;;19.67;100.00
66164;BME280;52962;51.088;3.096;2022-08-01T00:55:22;101497.84;;;19.65;100.00
66164;BME280;52962;51.088;3.096;2022-08-01T00:57:50;101504.06;;;19.65;100.00
66164;BME280;52962;51.088;3.096;2022-08-01T01:00:32;101506.75;;;19.64;100.00
66164;BME280;52962;51.088;3.096;2022-08-01T01:03:20;101496.06;;;19.64;100.00
66164;BME280;52962;51.088;3.096;2022-08-01T01:06:19;101498.72;;;19.65;100.00
66164;BME280;52962;51.088;3.096;2022-08-01T01:09:00;101502.28;;;19.66;100.00
66164;BME280;52962;51.088;3.096;2022-08-01T01:11:35;101497.84;;;19.65;100.00
66164;BME280;52962;51.088;3.096;2022-08-01T01:14:09;101495.16;;;19.66;100.00
66164;BME280;52962;51.088;3.096;2022-08-01T01:16:42;101496.06;;;19.67;100.00
66164;BME280;52962;51.088;3.096;2022-08-01T01:19:16;101494.28;;;19.66;100.00
66164;BME280;52962;51.088;3.096;2022-08-01T01:22:02;101493.38;;;19.65;100.00
66164;BME280;52962;51.088;3.096;2022-08-01T01:24:45;101489.81;;;19.66;100.00
66164;BME280;52962;51.088;3.096;2022-08-01T01:27:22;101498.69;;;19.71;100.00
66164;BME280;52962;51.088;3.096;2022-08-01T01:29:55;101497.81;;;19.68;100.00
66164;BME280;52962;51.088;3.096;2022-08-01T01:32:30;101497.84;;;19.65;100.00
66164;BME280;52962;51.088;3.096;2022-08-01T01:35:02;101490.72;;;19.64;100.00
66164;BME280;52962;51.088;3.096;2022-08-01T01:37:33;101499.63;;;19.66;100.00
66164;BME280;52962;51.088;3.096;2022-08-01T01:40:05;101493.41;;;19.64;100.00
66164;BME280;52962;51.088;3.096;2022-08-01T01:42:33;101496.97;;;19.61;100.00
66164;BME280;52962;51.088;3.096;2022-08-01T01:45:05;101497.84;;;19.63;100.00
66164;BME280;52962;51.088;3.096;2022-08-01T01:47:36;101494.31;;;19.61;100.00
66164;BME280;52962;51.088;3.096;2022-08-01T01:50:05;101506.78;;;19.61;100.00
66164;BME280;52962;51.088;3.096;2022-08-01T01:52:36;101506.78;;;19.61;100.00
66164;BME280;52962;51.088;3.096;2022-08-01T01:55:08;101495.19;;;19.63;100.00
66164;BME280;52962;51.088;3.096;2022-08-01T01:57:38;101496.97;;;19.64;100.00
66164;BME280;52962;51.088;3.096;2022-08-01T02:00:10;101496.09;;;19.61;100.00
66164;BME280;52962;51.088;3.096;2022-08-01T02:02:39;101492.53;;;19.60;100.00
66164;BME280;52962;51.088;3.096;2022-08-01T02:05:11;101496.97;;;19.61;100.00
66164;BME280;52962;51.088;3.096;2022-08-01T02:07:40;101499.66;;;19.59;100.00
66164;BME280;52962;51.088;3.096;2022-08-01T02:10:10;101490.78;;;19.57;100.00
66164;BME280;52962;51.088;3.096;2022-08-01T02:12:41;101499.69;;;19.56;100.00
66164;BME280;52962;51.088;3.096;2022-08-01T02:15:13;101492.59;;;19.52;100.00
66164;BME280;52962;51.088;3.096;2022-08-01T02:17:44;101497.91;;;19.52;100.00
66164;BME280;52962;51.088;3.096;2022-08-01T02:20:14;101495.22;;;19.51;100.00
66164;BME280;52962;51.088;3.096;2022-08-01T02:22:47;101496.16;;;19.51;100.00
66164;BME280;52962;51.088;3.096;2022-08-01T02:25:20;101505.91;;;19.51;100.00
66164;BME280;52962;51.088;3.096;2022-08-01T02:27:56;101497.91;;;19.52;100.00
66164;BME280;52962;51.088;3.096;2022-08-01T02:30:33;101507.72;;;19.52;100.00
66164;BME280;52962;51.088;3.096;2022-08-01T02:33:03;101499.69;;;19.47;100.00
66164;BME280;52962;51.088;3.096;2022-08-01T02:35:35;101506.81;;;19.48;100.00
66164;BME280;52962;51.088;3.096;2022-08-01T02:38:27;101495.25;;;19.46;100.00
66164;BME280;52962;51.088;3.096;2022-08-01T02:40:58;101499.72;;;19.44;100.00
66164;BME280;52962;51.088;3.096;2022-08-01T02:43:28;101503.28;;;19.43;100.00
66164;BME280;52962;51.088;3.096;2022-08-01T02:46:01;101504.19;;;19.42;100.00
66164;BME280;52962;51.088;3.096;2022-08-01T02:48:33;101490.81;;;19.44;100.00
66164;BME280;52962;51.088;3.096;2022-08-01T02:51:03;101494.38;;;19.44;100.00
66164;BME280;52962;51.088;3.096;2022-08-01T02:53:33;101497.94;;;19.43;100.00
66164;BME280;52962;51.088;3.096;2022-08-01T02:56:11;101499.72;;;19.43;100.00
66164;BME280;52962;51.088;3.096;2022-08-01T02:58:40;101497.06;;;19.41;100.00
66164;BME280;52962;51.088;3.096;2022-08-01T03:01:13;101497.09;;;19.37;100.00
66164;BME280;52962;51.088;3.096;2022-08-01T03:03:44;101501.56;;;19.33;100.00
66164;BME280;52962;51.088;3.096;2022-08-01T03:06:12;101508.69;;;19.30;100.00
66164;BME280;52962;51.088;3.096;2022-08-01T03:08:41;101498.00;;;19.31;100.00
66164;BME280;52962;51.088;3.096;2022-08-01T03:11:11;101498.88;;;19.33;100.00
66164;BME280;52962;51.088;3.096;2022-08-01T03:13:41;101499.78;;;19.32;100.00
66164;BME280;52962;51.088;3.096;2022-08-01T03:16:13;101491.78;;;19.31;100.00
66164;BME280;52962;51.088;3.096;2022-08-01T03:18:43;101490.91;;;19.27;100.00
66164;BME280;52962;51.088;3.096;2022-08-01T03:21:13;101485.56;;;19.25;100.00
66164;BME280;52962;51.088;3.096;2022-08-01T03:23:42;101495.38;;;19.23;100.00
66164;BME280;52962;51.088;3.096;2022-08-01T03:26:11;101495.38;;;19.20;100.00
66164;BME280;52962;51.088;3.096;2022-08-01T03:28:40;101494.53;;;19.14;100.00
66164;BME280;52962;51.088;3.096;2022-08-01T03:31:09;101497.22;;;19.11;100.00
66164;BME280;52962;51.088;3.096;2022-08-01T03:33:39;101502.56;;;19.08;100.00
66164;BME280;52962;51.088;3.096;2022-08-01T03:36:09;101501.69;;;19.06;100.00
66164;BME280;52962;51.088;3.096;2022-08-01T03:38:40;101491.91;;;19.03;100.00
66164;BME280;52962;51.088;3.096;2022-08-01T03:41:11;101495.47;;;18.99;100.00
66164;BME280;52962;51.088;3.096;2022-08-01T03:43:45;101494.59;;;18.94;100.00
66164;BME280;52962;51.088;3.096;2022-08-01T03:46:18;101507.06;;;18.90;100.00
66164;BME280;52962;51.088;3.096;2022-08-01T03:48:48;101500.84;;;18.87;100.00
66164;BME280;52962;51.088;3.096;2022-08-01T03:51:21;101506.19;;;18.84;100.00
66164;BME280;52962;51.088;3.096;2022-08-01T03:53:51;101502.66;;;18.80;100.00
66164;BME280;52962;51.088;3.096;2022-08-01T03:56:22;101505.31;;;18.79;100.00
66164;BME280;52962;51.088;3.096;2022-08-01T03:58:51;101508.88;;;18.79;100.00
66164;BME280;52962;51.088;3.096;2022-08-01T04:01:20;101508.91;;;18.76;100.00
66164;BME280;52962;51.088;3.096;2022-08-01T04:03:50;101508.00;;;18.74;100.00
66164;BME280;52962;51.088;3.096;2022-08-01T04:06:18;101503.56;;;18.73;100.00
66164;BME280;52962;51.088;3.096;2022-08-01T04:08:46;101503.56;;;18.73;100.00
66164;BME280;52962;51.088;3.096;2022-08-01T04:11:23;101500.03;;;18.71;100.00
66164;BME280;52962;51.088;3.096;2022-08-01T04:13:52;101500.94;;;18.67;100.00
66164;BME280;52962;51.088;3.096;2022-08-01T04:16:21;101508.06;;;18.65;100.00
66164;BME280;52962;51.088;3.096;2022-08-01T04:18:50;101501.84;;;18.63;100.00
66164;BME280;52962;51.088;3.096;2022-08-01T04:21:22;101504.50;;;18.61;100.00
66164;BME280;52962;51.088;3.096;2022-08-01T04:23:51;101511.63;;;18.61;100.00
66164;BME280;52962;51.088;3.096;2022-08-01T04:26:21;101511.59;;;18.56;100.00
66164;BME280;52962;51.088;3.096;2022-08-01T04:28:51;101511.63;;;18.52;100.00
66164;BME280;52962;51.088;3.096;2022-08-01T04:31:22;101509.84;;;18.46;100.00
66164;BME280;52962;51.088;3.096;2022-08-01T04:33:54;101514.28;;;18.43;100.00
66164;BME280;52962;51.088;3.096;2022-08-01T04:36:24;101499.19;;;18.37;100.00
66164;BME280;52962;51.088;3.096;2022-08-01T04:38:59;101508.97;;;18.37;100.00
66164;BME280;52962;51.088;3.096;2022-08-01T04:41:30;101508.06;;;18.32;100.00
66164;BME280;52962;51.088;3.096;2022-08-01T04:43:58;101519.63;;;18.27;100.00
66164;BME280;52962;51.088;3.096;2022-08-01T04:46:28;101513.41;;;18.28;100.00
66164;BME280;52962;51.088;3.096;2022-08-01T04:48:58;101520.53;;;18.34;100.00
66164;BME280;52962;51.088;3.096;2022-08-01T04:51:27;101522.28;;;18.37;100.00
66164;BME280;52962;51.088;3.096;2022-08-01T04:53:55;101513.41;;;18.38;100.00
66164;BME280;52962;51.088;3.096;2022-08-01T04:56:24;101525.84;;;18.36;100.00
66164;BME280;52962;51.088;3.096;2022-08-01T04:58:52;101530.28;;;18.41;100.00
66164;BME280;52962;51.088;3.096;2022-08-01T05:01:34;101528.50;;;18.48;100.00
66164;BME280;52962;51.088;3.096;2022-08-01T05:04:04;101531.16;;;18.58;100.00
66164;BME280;52962;51.088;3.096;2022-08-01T05:06:32;101531.19;;;18.65;100.00
66164;BME280;52962;51.088;3.096;2022-08-01T05:09:00;101532.91;;;18.73;100.00
66164;BME280;52962;51.088;3.096;2022-08-01T05:11:27;101531.13;;;18.83;100.00
66164;BME280;52962;51.088;3.096;2022-08-01T05:13:55;101528.41;;;18.93;100.00
66164;BME280;52962;51.088;3.096;2022-08-01T05:16:23;101531.94;;;19.02;100.00
66164;BME280;52962;51.088;3.096;2022-08-01T05:18:51;101530.16;;;19.04;100.00
66164;BME280;52962;51.088;3.096;2022-08-01T05:21:20;101531.03;;;19.09;100.00
66164;BME280;52962;51.088;3.096;2022-08-01T05:23:48;101528.34;;;19.15;100.00
66164;BME280;52962;51.088;3.096;2022-08-01T05:26:16;101531.00;;;19.16;100.00
66164;BME280;52962;51.088;3.096;2022-08-01T05:28:44;101535.44;;;19.22;100.00
66164;BME280;52962;51.088;3.096;2022-08-01T05:31:11;101539.88;;;19.24;100.00
66164;BME280;52962;51.088;3.096;2022-08-01T05:33:39;101547.88;;;19.23;100.00
66164;BME280;52962;51.088;3.096;2022-08-01T05:36:07;101545.22;;;19.21;100.00
66164;BME280;52962;51.088;3.096;2022-08-01T05:38:36;101544.34;;;19.22;100.00
66164;BME280;52962;51.088;3.096;2022-08-01T05:41:04;101548.75;;;19.26;100.00
66164;BME280;52962;51.088;3.096;2022-08-01T05:43:32;101551.41;;;19.34;100.00
66164;BME280;52962;51.088;3.096;2022-08-01T05:46:00;101548.69;;;19.42;100.00
66164;BME280;52962;51.088;3.096;2022-08-01T05:48:28;101560.25;;;19.53;100.00
66164;BME280;52962;51.088;3.096;2022-08-01T05:50:56;101553.94;;;19.66;100.00
66164;BME280;52962;51.088;3.096;2022-08-01T05:53:25;101552.06;;;19.77;100.00
66164;BME280;52962;51.088;3.096;2022-08-01T05:55:54;101558.25;;;19.87;100.00
66164;BME280;52962;51.088;3.096;2022-08-01T05:58:22;101558.19;;;19.96;100.00
66164;BME280;52962;51.088;3.096;2022-08-01T06:00:52;101555.50;;;19.99;100.00
66164;BME280;52962;51.088;3.096;2022-08-01T06:03:20;101548.38;;;19.98;100.00
66164;BME280;52962;51.088;3.096;2022-08-01T06:05:48;101552.88;;;19.93;100.00
66164;BME280;52962;51.088;3.096;2022-08-01T06:08:16;101556.44;;;19.89;100.00
66164;BME280;52962;51.088;3.096;2022-08-01T06:10:44;101547.53;;;19.90;100.00
66164;BME280;52962;51.088;3.096;2022-08-01T06:13:13;101562.69;;;19.91;100.00
66164;BME280;52962;51.088;3.096;2022-08-01T06:15:41;101568.91;;;19.90;100.00
66164;BME280;52962;51.088;3.096;2022-08-01T06:18:09;101565.34;;;19.91;100.00
66164;BME280;52962;51.088;3.096;2022-08-01T06:20:37;101572.47;;;19.90;100.00
66164;BME280;52962;51.088;3.096;2022-08-01T06:23:05;101578.72;;;19.91;100.00
66164;BME280;52962;51.088;3.096;2022-08-01T06:25:53;101573.38;;;19.88;100.00
66164;BME280;52962;51.088;3.096;2022-08-01T06:28:23;101574.31;;;19.84;100.00
66164;BME280;52962;51.088;3.096;2022-08-01T06:30:50;101576.97;;;19.87;100.00
66164;BME280;52962;51.088;3.096;2022-08-01T06:33:18;101576.06;;;19.89;100.00
66164;BME280;52962;51.088;3.096;2022-08-01T06:35:46;101576.00;;;19.97;100.00
66164;BME280;52962;51.088;3.096;2022-08-01T06:38:14;101570.59;;;20.05;100.00
66164;BME280;52962;51.088;3.096;2022-08-01T06:40:42;101567.88;;;20.11;100.00
66164;BME280;52962;51.088;3.096;2022-08-01T06:43:10;101561.66;;;20.10;100.00
66164;BME280;52962;51.088;3.096;2022-08-01T06:45:40;101565.22;;;20.08;100.00
66164;BME280;52962;51.088;3.096;2022-08-01T06:48:08;101567.88;;;20.14;100.00
66164;BME280;52962;51.088;3.096;2022-08-01T06:50:36;101574.97;;;20.15;100.00
66164;BME280;52962;51.088;3.096;2022-08-01T06:53:05;101572.28;;;20.19;100.00
66164;BME280;52962;51.088;3.096;2022-08-01T06:55:33;101577.56;;;20.29;100.00
66164;BME280;52962;51.088;3.096;2022-08-01T06:58:01;101584.59;;;20.45;100.00
66164;BME280;52962;51.088;3.096;2022-08-01T07:00:29;101577.47;;;20.42;100.00
66164;BME280;52962;51.088;3.096;2022-08-01T07:02:58;101582.84;;;20.41;100.00
66164;BME280;52962;51.088;3.096;2022-08-01T07:05:27;101582.81;;;20.44;100.00
66164;BME280;52962;51.088;3.096;2022-08-01T07:07:57;101585.50;;;20.44;100.00
66164;BME280;52962;51.088;3.096;2022-08-01T07:10:25;101577.47;;;20.38;100.00
66164;BME280;52962;51.088;3.096;2022-08-01T07:12:53;101578.38;;;20.40;100.00
66164;BME280;52962;51.088;3.096;2022-08-01T07:15:21;101581.06;;;20.40;100.00
66164;BME280;52962;51.088;3.096;2022-08-01T07:17:53;101583.72;;;20.43;100.00
66164;BME280;52962;51.088;3.096;2022-08-01T07:20:22;101577.50;;;20.41;100.00
66164;BME280;52962;51.088;3.096;2022-08-01T07:22:50;101576.59;;;20.42;100.00
66164;BME280;52962;51.088;3.096;2022-08-01T07:25:18;101574.78;;;20.44;100.00
66164;BME280;52962;51.088;3.096;2022-08-01T07:27:46;101565.00;;;20.43;100.00
66164;BME280;52962;51.088;3.096;2022-08-01T07:30:13;101573.91;;;20.43;100.00
66164;BME280;52962;51.088;3.096;2022-08-01T07:32:41;101569.47;;;20.41;100.00
66164;BME280;52962;51.088;3.096;2022-08-01T07:35:09;101575.69;;;20.44;100.00
66164;BME280;52962;51.088;3.096;2022-08-01T07:37:39;101580.97;;;20.50;100.00
66164;BME280;52962;51.088;3.096;2022-08-01T07:40:15;101588.03;;;20.58;100.00
66164;BME280;52962;51.088;3.096;2022-08-01T07:42:43;101597.78;;;20.66;100.00
66164;BME280;52962;51.088;3.096;2022-08-01T07:45:12;101595.03;;;20.75;100.00
66164;BME280;52962;51.088;3.096;2022-08-01T07:47:40;101595.78;;;20.86;100.00
66164;BME280;52962;51.088;3.096;2022-08-01T07:50:08;101594.88;;;20.86;100.00
66164;BME280;52962;51.088;3.096;2022-08-01T07:52:36;101594.69;;;21.06;100.00
66164;BME280;52962;51.088;3.096;2022-08-01T07:55:06;101600.91;;;21.08;100.00
66164;BME280;52962;51.088;3.096;2022-08-01T07:57:34;101599.13;;;21.08;100.00
66164;BME280;52962;51.088;3.096;2022-08-01T08:00:03;101607.16;;;21.08;100.00
66164;BME280;52962;51.088;3.096;2022-08-01T08:02:32;101603.47;;;21.17;100.00
66164;BME280;52962;51.088;3.096;2022-08-01T08:05:00;101595.25;;;21.37;100.00
66164;BME280;52962;51.088;3.096;2022-08-01T08:07:28;101591.13;;;21.79;100.00
66164;BME280;52962;51.088;3.096;2022-08-01T08:09:56;101589.66;;;22.16;100.00
66164;BME280;52962;51.088;3.096;2022-08-01T08:12:25;101593.28;;;22.15;100.00
66164;BME280;52962;51.088;3.096;2022-08-01T08:14:55;101591.50;;;22.14;100.00
66164;BME280;52962;51.088;3.096;2022-08-01T08:17:25;101596.28;;;22.51;100.00
66164;BME280;52962;51.088;3.096;2022-08-01T08:19:53;101591.91;;;22.95;100.00
66164;BME280;52962;51.088;3.096;2022-08-01T08:22:21;101594.69;;;22.90;100.00
66164;BME280;52962;51.088;3.096;2022-08-01T08:24:49;101593.22;;;22.72;100.00
66164;BME280;52962;51.088;3.096;2022-08-01T08:27:17;101597.34;;;22.92;100.00
66164;BME280;52962;51.088;3.096;2022-08-01T08:29:46;101599.53;;;23.17;100.00
66164;BME280;52962;51.088;3.096;2022-08-01T08:32:14;101597.56;;;23.26;100.00
66164;BME280;52962;51.088;3.096;2022-08-01T08:34:41;101592.31;;;23.20;100.00
66164;BME280;52962;51.088;3.096;2022-08-01T08:37:10;101598.69;;;23.14;100.00
66164;BME280;52962;51.088;3.096;2022-08-01T08:39:37;101593.50;;;23.05;100.00
66164;BME280;52962;51.088;3.096;2022-08-01T08:42:08;101594.25;;;23.13;100.00
66164;BME280;52962;51.088;3.096;2022-08-01T08:44:37;101590.56;;;23.17;100.00
66164;BME280;52962;51.088;3.096;2022-08-01T08:47:12;101592.16;;;23.27;100.00
66164;BME280;52962;51.088;3.096;2022-08-01T08:49:46;101589.28;;;23.36;100.00
66164;BME280;52962;51.088;3.096;2022-08-01T08:52:16;101599.91;;;23.42;100.00
66164;BME280;52962;51.088;3.096;2022-08-01T08:54:45;101585.81;;;23.31;100.00
66164;BME280;52962;51.088;3.096;2022-08-01T08:57:13;101586.50;;;23.41;100.00
66164;BME280;52962;51.088;3.096;2022-08-01T08:59:43;101601.47;;;23.56;100.00
66164;BME280;52962;51.088;3.096;2022-08-01T09:02:12;101597.97;;;23.51;100.00
66164;BME280;52962;51.088;3.096;2022-08-01T09:04:40;101595.22;;;23.52;100.00
66164;BME280;52962;51.088;3.096;2022-08-01T09:07:08;101595.59;;;23.78;100.00
66164;BME280;52962;51.088;3.096;2022-08-01T09:09:38;101587.66;;;24.09;100.00
66164;BME280;52962;51.088;3.096;2022-08-01T09:12:08;101594.97;;;24.04;100.00
66164;BME280;52962;51.088;3.096;2022-08-01T09:14:44;101602.50;;;23.90;100.00
66164;BME280;52962;51.088;3.096;2022-08-01T09:17:14;101611.38;;;23.92;100.00
66164;BME280;52962;51.088;3.096;2022-08-01T09:19:44;101609.47;;;23.97;100.00
66164;BME280;52962;51.088;3.096;2022-08-01T09:22:15;101618.41;;;23.99;100.00
66164;BME280;52962;51.088;3.096;2022-08-01T09:24:57;101611.09;;;24.04;100.00
66164;BME280;52962;51.088;3.096;2022-08-01T09:27:26;101613.75;;;24.06;100.00
66164;BME280;52962;51.088;3.096;2022-08-01T09:29:54;101618.19;;;23.70;100.00
66164;BME280;52962;51.088;3.096;2022-08-01T09:32:30;101614.38;;;23.80;100.00
66164;BME280;52962;51.088;3.096;2022-08-01T09:35:23;101620.97;;;24.04;100.00
66164;BME280;52962;51.088;3.096;2022-08-01T09:38:14;101618.31;;;24.02;100.00
66164;BME280;52962;51.088;3.096;2022-08-01T09:40:50;101613.66;;;24.10;100.00
66164;BME280;52962;51.088;3.096;2022-08-01T09:43:20;101617.16;;;24.14;100.00
66164;BME280;52962;51.088;3.096;2022-08-01T09:45:49;101612.41;;;24.27;100.00
66164;BME280;52962;51.088;3.096;2022-08-01T09:48:21;101619.41;;;24.34;100.00
66164;BME280;52962;51.088;3.096;2022-08-01T09:50:56;101612.84;;;24.45;100.00
66164;BME280;52962;51.088;3.096;2022-08-01T09:53:42;101619.72;;;24.57;100.00
66164;BME280;52962;51.088;3.096;2022-08-01T09:56:19;101617.75;;;24.64;100.00
66164;BME280;52962;51.088;3.096;2022-08-01T09:58:52;101625.00;;;24.62;100.00
66164;BME280;52962;51.088;3.096;2022-08-01T10:01:25;101618.16;;;24.49;100.00
66164;BME280;52962;51.088;3.096;2022-08-01T10:04:09;101619.97;;;24.48;100.00
66164;BME280;52962;51.088;3.096;2022-08-01T10:06:38;101620.56;;;24.59;100.00
66164;BME280;52962;51.088;3.096;2022-08-01T10:09:08;101620.41;;;24.65;100.00
66164;BME280;52962;51.088;3.096;2022-08-01T10:11:37;101614.94;;;24.68;100.00
66164;BME280;52962;51.088;3.096;2022-08-01T10:14:07;101617.66;;;24.68;100.00
66164;BME280;52962;51.088;3.096;2022-08-01T10:16:36;101610.53;;;24.66;100.00
66164;BME280;52962;51.088;3.096;2022-08-01T10:19:07;101614.25;;;24.60;100.00
66164;BME280;52962;51.088;3.096;2022-08-01T10:21:41;101613.66;;;24.49;100.00
66164;BME280;52962;51.088;3.096;2022-08-01T10:24:25;101613.72;;;24.46;100.00
66164;BME280;52962;51.088;3.096;2022-08-01T10:26:57;101611.88;;;24.48;100.00
66164;BME280;52962;51.088;3.096;2022-08-01T10:29:37;101615.34;;;24.53;100.00
66164;BME280;52962;51.088;3.096;2022-08-01T10:32:27;101617.06;;;24.56;100.00
66164;BME280;52962;51.088;3.096;2022-08-01T10:34:57;101622.41;;;24.57;100.00
66164;BME280;52962;51.088;3.096;2022-08-01T10:37:33;101612.59;;;24.55;100.00
66164;BME280;52962;51.088;3.096;2022-08-01T10:40:18;101613.41;;;24.58;100.00
66164;BME280;52962;51.088;3.096;2022-08-01T10:42:56;101611.50;;;24.63;100.00
66164;BME280;52962;51.088;3.096;2022-08-01T10:45:25;101616.59;;;24.74;100.00
66164;BME280;52962;51.088;3.096;2022-08-01T10:48:01;101614.47;;;24.87;100.00
66164;BME280;52962;51.088;3.096;2022-08-01T10:50:37;101615.91;;;25.00;100.00
66164;BME280;52962;51.088;3.096;2022-08-01T10:53:10;101612.16;;;25.05;100.00
66164;BME280;52962;51.088;3.096;2022-08-01T10:55:57;101611.41;;;25.00;100.00
66164;BME280;52962;51.088;3.096;2022-08-01T10:58:30;101618.59;;;25.00;100.00
66164;BME280;52962;51.088;3.096;2022-08-01T11:01:23;101613.91;;;25.08;100.00
66164;BME280;52962;51.088;3.096;2022-08-01T11:04:02;101614.69;;;25.12;100.00
66164;BME280;52962;51.088;3.096;2022-08-01T11:07:02;101615.41;;;25.18;100.00
66164;BME280;52962;51.088;3.096;2022-08-01T11:09:42;101619.19;;;25.11;100.00
66164;BME280;52962;51.088;3.096;2022-08-01T11:12:18;101611.25;;;25.06;100.00
66164;BME280;52962;51.088;3.096;2022-08-01T11:18:03;101604.97;;;25.06;100.00
66164;BME280;52962;51.088;3.096;2022-08-01T11:20:32;101599.50;;;25.09;100.00
66164;BME280;52962;51.088;3.096;2022-08-01T11:23:18;101602.69;;;25.23;100.00
66164;BME280;52962;51.088;3.096;2022-08-01T11:26:07;101603.97;;;25.41;100.00
66164;BME280;52962;51.088;3.096;2022-08-01T11:28:36;101607.19;;;25.54;100.00
66164;BME280;52962;51.088;3.096;2022-08-01T11:31:27;101604.16;;;25.66;100.00
66164;BME280;52962;51.088;3.096;2022-08-01T11:34:02;101603.38;;;25.61;100.00
66164;BME280;52962;51.088;3.096;2022-08-01T11:36:30;101603.13;;;25.39;100.00
66164;BME280;52962;51.088;3.096;2022-08-01T11:39:20;101605.97;;;25.34;100.00
66164;BME280;52962;51.088;3.096;2022-08-01T11:41:48;101594.38;;;25.31;100.00
66164;BME280;52962;51.088;3.096;2022-08-01T11:44:21;101592.66;;;25.28;100.00
66164;BME280;52962;51.088;3.096;2022-08-01T11:47:03;101592.78;;;25.24;100.00
66164;BME280;52962;51.088;3.096;2022-08-01T11:49:47;101594.81;;;25.16;100.00
66164;BME280;52962;51.088;3.096;2022-08-01T11:52:19;101600.06;;;25.20;100.00
66164;BME280;52962;51.088;3.096;2022-08-01T11:54:53;101593.41;;;25.33;100.00
66164;BME280;52962;51.088;3.096;2022-08-01T11:57:24;101594.03;;;25.43;100.00
66164;BME280;52962;51.088;3.096;2022-08-01T12:00:02;101584.31;;;25.37;100.00
66164;BME280;52962;51.088;3.096;2022-08-01T12:02:34;101589.88;;;25.31;100.00
66164;BME280;52962;51.088;3.096;2022-08-01T12:05:05;101599.94;;;25.25;100.00
66164;BME280;52962;51.088;3.096;2022-08-01T12:07:39;101594.19;;;25.06;100.00
66164;BME280;52962;51.088;3.096;2022-08-01T12:10:10;101595.97;;;25.07;100.00
66164;BME280;52962;51.088;3.096;2022-08-01T12:12:43;101587.47;;;25.21;100.00
66164;BME280;52962;51.088;3.096;2022-08-01T12:15:12;101587.09;;;25.34;100.00
66164;BME280;52962;51.088;3.096;2022-08-01T12:17:41;101591.47;;;25.38;100.00
66164;BME280;52962;51.088;3.096;2022-08-01T12:20:26;101591.59;;;25.34;100.00
66164;BME280;52962;51.088;3.096;2022-08-01T12:22:59;101586.25;;;25.32;100.00
66164;BME280;52962;51.088;3.096;2022-08-01T12:25:29;101584.31;;;25.37;100.00
66164;BME280;52962;51.088;3.096;2022-08-01T12:28:00;101584.13;;;25.43;100.00
66164;BME280;52962;51.088;3.096;2022-08-01T12:30:28;101600.59;;;25.64;100.00
66164;BME280;52962;51.088;3.096;2022-08-01T12:32:58;101595.19;;;25.95;100.00
66164;BME280;52962;51.088;3.096;2022-08-01T12:35:27;101590.97;;;26.13;100.00
66164;BME280;52962;51.088;3.096;2022-08-01T12:37:57;101594.22;;;26.24;100.00
66164;BME280;52962;51.088;3.096;2022-08-01T12:40:27;101599.34;;;26.33;100.00
66164;BME280;52962;51.088;3.096;2022-08-01T12:42:58;101593.53;;;26.45;100.00
66164;BME280;52962;51.088;3.096;2022-08-01T12:45:29;101595.00;;;26.55;100.00
66164;BME280;52962;51.088;3.096;2022-08-01T12:47:58;101589.69;;;26.52;100.00
66164;BME280;52962;51.088;3.096;2022-08-01T12:50:28;101585.78;;;26.61;100.00
66164;BME280;52962;51.088;3.096;2022-08-01T12:52:57;101590.81;;;26.71;100.00
66164;BME280;52962;51.088;3.096;2022-08-01T12:55:26;101586.88;;;26.82;100.00
66164;BME280;52962;51.088;3.096;2022-08-01T12:58:05;101577.78;;;26.84;100.00
66164;BME280;52962;51.088;3.096;2022-08-01T13:00:40;101577.38;;;26.95;100.00
66164;BME280;52962;51.088;3.096;2022-08-01T13:03:12;101575.94;;;27.10;100.00
66164;BME280;52962;51.088;3.096;2022-08-01T13:05:42;101574.69;;;27.20;100.00